Avoca, Wisconsin
Current Conditions -  °F | °C
As of 11:56 AM on Thursday 23 Oct 2014 (Local Time) from KLNR Reporting Station
Moderate Rain Moderate Rain  
Wind Chill: 50°   Ceiling: 2200
Heat Index: 50°   Visibility: 3mi
Dew Point: 44°   Wind: 6mph
Humidity: 80%   Direction: 120°ESE
Pressure: 30.1"   Gusts: NA
Location:  43.18°N, 90.32°W
Report Text: KLNR 231656Z AUTO 12005KT 3SM RA OVC022 10/07 A3010 RMK AO2 SLP191 P0008 T01000067
Loading
Personal Weather Stations






























Interactive Weather Map New forecast layout! Learn more

10-Day Weather Forecast

Advertisements
Track Severe Weather on mobile